Vaughn, Oregon
Current Conditions -  °F | °C
As of 6:54 AM on Sunday 21 Dec 2014 (Local Time) from KEUG Reporting Station
Light Rain Light Rain  
Wind Chill: 55°   Ceiling: 7000
Heat Index: 55°   Visibility: 10mi
Dew Point: 53°   Wind: 6mph
Humidity: 93%   Direction: 220°SW
Pressure: 30.02"   Gusts: NA
Location:  43.9317°N, 123.417°W
Report Text: KEUG 211454Z 22005KT 10SM -RA SCT029 BKN070 OVC085 13/12 A3002 RMK AO2 SLP165 P0004 60008 T01280117 53013
Loading
Personal Weather Stations






























Interactive Weather Map New forecast layout! Learn more

10-Day Weather Forecast

Advertisements
Track Severe Weather on mobile